Time;durP1;ratioP1;P1;durP2;ratioP2;P2;SDS_P1;SDS_P2;PMS_P1;PMS_P2;Temp;Humidity;BMP_temperature;BMP_pressure;BME280_temperature;BME280_humidity;BME280_pressure;Samples;Min_cycle;Max_cycle;Signal;HPM_P1;HPM_P2
2022/12/09 00:01:35;;;;;;;11.93;10.68;;;2.40;99.90;;;;;;4959325;28;90844;-32
2022/12/09 00:04:01;;;;;;;17.48;11.52;;;2.40;99.90;;;;;;4959266;28;89124;-33
2022/12/09 00:06:28;;;;;;;14.52;11.10;;;2.40;99.90;;;;;;4960011;28;90041;-30
2022/12/09 00:08:55;;;;;;;15.43;11.48;;;2.40;99.90;;;;;;4959738;28;89603;-32
2022/12/09 00:11:22;;;;;;;20.88;13.23;;;2.40;99.90;;;;;;4959969;28;89619;-32
2022/12/09 00:13:52;;;;;;;13.10;11.77;;;2.30;99.90;;;;;;4959561;28;89482;-31
2022/12/09 00:16:18;;;;;;;15.02;12.90;;;2.30;99.90;;;;;;4959695;28;89960;-33
2022/12/09 00:18:44;;;;;;;16.50;12.95;;;2.30;99.90;;;;;;4958851;28;91945;-30
2022/12/09 00:21:31;;;;;;;12.93;11.70;;;2.30;99.90;;;;;;4957257;28;90552;-34
2022/12/09 00:23:59;;;;;;;14.75;12.13;;;2.30;99.90;;;;;;4960053;28;90104;-33
2022/12/09 00:26:26;;;;;;;14.43;12.48;;;2.30;99.90;;;;;;4959849;28;90251;-31
2022/12/09 00:28:52;;;;;;;13.98;11.23;;;2.30;99.90;;;;;;4959286;28;89909;-32
2022/12/09 00:31:23;;;;;;;15.60;14.02;;;2.30;99.90;;;;;;4959080;28;89697;-31
2022/12/09 00:33:54;;;;;;;14.70;13.20;;;2.30;99.90;;;;;;4959302;28;89235;-33
2022/12/09 00:36:21;;;;;;;15.85;14.13;;;2.30;99.90;;;;;;4959112;28;89815;-33
2022/12/09 00:38:47;;;;;;;17.80;12.52;;;2.30;99.90;;;;;;4958990;28;89131;-34
2022/12/09 00:41:14;;;;;;;15.38;13.05;;;2.30;99.90;;;;;;4959284;28;89489;-32
2022/12/09 00:43:40;;;;;;;19.30;13.70;;;2.30;99.90;;;;;;4959246;28;88980;-32
2022/12/09 00:46:06;;;;;;;13.85;12.32;;;2.30;99.90;;;;;;4958967;28;89880;-31
2022/12/09 00:48:37;;;;;;;15.88;13.52;;;2.30;99.90;;;;;;4959452;28;89941;-31
2022/12/09 00:51:03;;;;;;;22.42;12.18;;;2.30;99.90;;;;;;4959366;28;89671;-34
2022/12/09 00:53:29;;;;;;;15.85;13.00;;;2.30;99.90;;;;;;4959683;28;89543;-33
2022/12/09 00:55:55;;;;;;;17.05;13.88;;;2.20;99.90;;;;;;4958456;28;90125;-34
2022/12/09 00:58:20;;;;;;;22.65;15.05;;;2.20;99.90;;;;;;4959284;28;90001;-33
2022/12/09 01:00:46;;;;;;;17.60;14.18;;;2.20;99.90;;;;;;4959218;28;89604;-31
2022/12/09 01:03:13;;;;;;;16.63;14.43;;;2.20;99.90;;;;;;4959357;28;89015;-32
2022/12/09 01:05:39;;;;;;;14.50;12.70;;;2.20;99.90;;;;;;4958562;28;89647;-33
2022/12/09 01:08:05;;;;;;;17.92;13.32;;;2.20;99.90;;;;;;4957850;28;90280;-31
2022/12/09 01:10:33;;;;;;;21.88;14.27;;;2.20;99.90;;;;;;4958901;28;90443;-32
2022/12/09 01:12:58;;;;;;;15.57;12.52;;;2.20;99.90;;;;;;4959508;28;88400;-31
2022/12/09 01:15:24;;;;;;;17.30;14.00;;;2.20;99.90;;;;;;4956469;28;90220;-30
2022/12/09 01:17:50;;;;;;;17.90;12.93;;;2.10;99.90;;;;;;4958988;28;89543;-31
2022/12/09 01:20:16;;;;;;;18.30;13.48;;;2.20;99.90;;;;;;4958546;28;90610;-32
2022/12/09 01:22:41;;;;;;;18.83;14.50;;;2.20;99.90;;;;;;4958820;28;89928;-31
2022/12/09 01:25:07;;;;;;;19.05;14.65;;;2.20;99.90;;;;;;4959277;28;90701;-30
2022/12/09 01:27:33;;;;;;;16.05;13.30;;;2.20;99.90;;;;;;4958113;28;88223;-33
2022/12/09 01:29:58;;;;;;;17.92;14.27;;;2.20;99.90;;;;;;4958784;28;89946;-31
2022/12/09 01:32:24;;;;;;;17.42;14.38;;;2.10;99.90;;;;;;4958665;28;89593;-30
2022/12/09 01:34:51;;;;;;;21.02;13.25;;;2.10;99.90;;;;;;4962469;28;90044;-30
2022/12/09 01:37:16;;;;;;;19.73;14.90;;;2.10;99.90;;;;;;4962197;28;89682;-33
2022/12/09 01:39:42;;;;;;;16.70;14.18;;;2.10;99.90;;;;;;4962054;28;89105;-30
2022/12/09 01:42:18;;;;;;;18.45;14.23;;;2.10;99.90;;;;;;4962176;28;90012;-31
2022/12/09 01:45:21;;;;;;;19.48;14.57;;;2.10;99.90;;;;;;4961548;28;90326;-31
2022/12/09 01:47:50;;;;;;;16.70;13.35;;;2.00;99.90;;;;;;4962441;28;89150;-34
2022/12/09 01:50:16;;;;;;;;;;;2.00;99.90;;;;;;4962655;28;90185;-34
2022/12/09 01:52:43;;;;;;;18.40;12.85;;;2.00;99.90;;;;;;4963580;28;88504;-33
2022/12/09 01:55:09;;;;;;;19.50;14.75;;;2.00;99.90;;;;;;4961548;28;90194;-33
2022/12/09 01:57:35;;;;;;;22.05;14.70;;;2.00;99.90;;;;;;4961402;28;91044;-32
2022/12/09 02:00:01;;;;;;;16.73;14.93;;;1.90;99.90;;;;;;4961578;28;90796;-32
2022/12/09 02:02:29;;;;;;;20.35;14.98;;;1.90;99.90;;;;;;4961531;28;89288;-31
2022/12/09 02:04:55;;;;;;;20.77;13.20;;;1.80;99.90;;;;;;4961652;28;89856;-33
2022/12/09 02:07:21;;;;;;;16.80;13.75;;;1.70;99.90;;;;;;4961415;28;90071;-33
2022/12/09 02:09:51;;;;;;;18.55;14.65;;;1.70;99.90;;;;;;4961159;28;89054;-32
2022/12/09 02:12:37;;;;;;;15.75;12.70;;;1.60;99.90;;;;;;4962002;28;88313;-30
2022/12/09 02:15:12;;;;;;;17.52;14.55;;;1.60;99.90;;;;;;4961302;28;90239;-31
2022/12/09 02:17:49;;;;;;;15.77;13.40;;;1.50;99.90;;;;;;4961201;28;90917;-30
2022/12/09 02:20:28;;;;;;;17.17;12.23;;;1.40;99.90;;;;;;4961042;28;89533;-31
2022/12/09 02:23:18;;;;;;;18.23;13.82;;;1.30;99.90;;;;;;4960763;28;90331;-32
2022/12/09 02:25:51;;;;;;;19.88;14.07;;;1.30;99.90;;;;;;4960836;28;90196;-32
2022/12/09 02:28:54;;;;;;;16.13;12.40;;;1.20;99.90;;;;;;4961474;28;88836;-32
2022/12/09 02:31:23;;;;;;;25.52;16.65;;;1.20;99.90;;;;;;4960760;28;89418;-31
2022/12/09 02:34:13;;;;;;;18.77;15.57;;;1.20;99.90;;;;;;4961740;28;88172;-30
2022/12/09 02:37:11;;;;;;;18.20;14.27;;;1.20;99.90;;;;;;4960835;28;89318;-33
2022/12/09 02:40:04;;;;;;;17.77;13.98;;;1.20;99.90;;;;;;4949396;28;89375;-32
2022/12/09 02:42:34;;;;;;;20.75;15.75;;;1.20;99.90;;;;;;4961137;28;89580;-29
2022/12/09 02:45:03;;;;;;;21.85;17.27;;;1.20;99.90;;;;;;4960222;28;90050;-31
2022/12/09 02:47:32;;;;;;;18.60;16.27;;;1.20;99.90;;;;;;4960978;28;90753;-32
2022/12/09 02:50:01;;;;;;;22.83;17.58;;;1.20;99.90;;;;;;4960659;28;90800;-32
2022/12/09 02:52:29;;;;;;;23.00;18.25;;;1.20;99.90;;;;;;4960492;28;90679;-31
2022/12/09 02:54:57;;;;;;;22.55;17.20;;;1.30;99.90;;;;;;4961715;28;88894;-29
2022/12/09 02:57:25;;;;;;;22.52;17.83;;;1.30;99.90;;;;;;4960801;28;90377;-31
2022/12/09 02:59:51;;;;;;;23.70;16.48;;;1.40;99.90;;;;;;4961008;28;90082;-31
2022/12/09 03:02:46;;;;;;;20.65;15.20;;;1.40;99.90;;;;;;4960413;28;89434;-33
2022/12/09 03:05:29;;;;;;;19.25;15.32;;;1.40;99.90;;;;;;4961187;28;87935;-30
2022/12/09 03:08:01;;;;;;;26.02;16.58;;;1.40;99.90;;;;;;4961128;28;90339;-32
2022/12/09 03:10:38;;;;;;;21.80;17.52;;;1.40;99.90;;;;;;4959970;28;91332;-32
2022/12/09 03:13:12;;;;;;;19.27;14.07;;;1.40;99.90;;;;;;4960389;28;89616;-31
2022/12/09 03:15:44;;;;;;;18.58;14.88;;;1.40;99.90;;;;;;4960362;28;89304;-31
2022/12/09 03:18:13;;;;;;;20.17;16.27;;;1.40;99.90;;;;;;4961067;28;90444;-31
2022/12/09 03:20:41;;;;;;;19.73;15.48;;;1.30;99.90;;;;;;4960081;28;89588;-32
2022/12/09 03:23:09;;;;;;;17.00;15.13;;;1.30;99.90;;;;;;4960615;28;89610;-31
2022/12/09 03:25:41;;;;;;;20.20;14.75;;;1.30;99.90;;;;;;4960275;28;89207;-32
2022/12/09 03:28:21;;;;;;;21.90;16.00;;;1.20;99.90;;;;;;4960310;28;90151;-33
2022/12/09 03:30:48;;;;;;;19.27;14.85;;;1.30;99.90;;;;;;4960540;28;89638;-32
2022/12/09 03:33:17;;;;;;;22.80;15.77;;;1.20;99.90;;;;;;4960300;28;91831;-31
2022/12/09 03:35:48;;;;;;;20.92;17.08;;;1.20;99.90;;;;;;4960174;28;88141;-31
2022/12/09 03:38:17;;;;;;;21.13;15.20;;;1.20;99.90;;;;;;4960752;28;90346;-31
2022/12/09 03:40:46;;;;;;;17.80;15.65;;;1.20;99.90;;;;;;4959480;28;90358;-30
2022/12/09 03:43:13;;;;;;;;;;;1.10;99.90;;;;;;4960578;28;90593;-33
2022/12/09 03:45:40;;;;;;;18.75;15.20;;;1.10;99.90;;;;;;4962201;28;88307;-30
2022/12/09 03:48:07;;;;;;;18.40;14.35;;;1.10;99.90;;;;;;4960235;28;89389;-33
2022/12/09 03:50:45;;;;;;;23.38;15.15;;;1.10;99.90;;;;;;4959873;28;89655;-32
2022/12/09 03:53:19;;;;;;;;;;;1.00;99.90;;;;;;4961068;28;89718;-29
2022/12/09 03:56:12;;;;;;;18.33;14.25;;;1.00;99.90;;;;;;4960295;28;89099;-31
2022/12/09 03:58:41;;;;;;;24.83;18.05;;;1.00;99.90;;;;;;4959579;28;89780;-31
2022/12/09 04:01:08;;;;;;;23.17;15.25;;;1.00;99.90;;;;;;4960290;28;89488;-32
2022/12/09 04:03:34;;;;;;;22.85;16.52;;;1.00;99.90;;;;;;4959285;28;89591;-30
2022/12/09 04:05:59;;;;;;;19.83;15.85;;;1.00;99.90;;;;;;4959581;28;89640;-32
2022/12/09 04:08:25;;;;;;;24.05;17.20;;;1.00;99.90;;;;;;4959493;28;89865;-30
2022/12/09 04:10:50;;;;;;;24.58;16.90;;;1.00;99.90;;;;;;4959722;28;90219;-33
2022/12/09 04:13:16;;;;;;;20.58;16.25;;;1.00;99.90;;;;;;4960103;28;89441;-33
2022/12/09 04:15:42;;;;;;;21.65;17.23;;;1.00;99.90;;;;;;4959232;28;89693;-33
2022/12/09 04:18:07;;;;;;;26.35;16.55;;;1.00;99.90;;;;;;4959941;28;90326;-31
2022/12/09 04:20:33;;;;;;;26.30;18.83;;;0.90;99.90;;;;;;4959147;28;89531;-30
2022/12/09 04:22:58;;;;;;;19.02;15.90;;;0.90;99.90;;;;;;4959106;28;89423;-31
2022/12/09 04:25:24;;;;;;;19.30;15.75;;;0.80;99.90;;;;;;4960051;28;90166;-32
2022/12/09 04:27:50;;;;;;;21.38;16.25;;;0.80;99.90;;;;;;4960388;28;89509;-31
2022/12/09 04:30:16;;;;;;;23.60;16.85;;;0.80;99.90;;;;;;4958810;28;91411;-31
2022/12/09 04:32:42;;;;;;;24.13;16.10;;;0.70;99.90;;;;;;4958995;28;90614;-31
2022/12/09 04:35:08;;;;;;;21.95;16.25;;;0.70;99.90;;;;;;4959500;28;89088;-31
2022/12/09 04:37:36;;;;;;;19.63;16.77;;;0.70;99.90;;;;;;4958653;28;90115;-33
2022/12/09 04:40:03;;;;;;;23.95;17.25;;;0.70;99.90;;;;;;4958966;28;89713;-29
2022/12/09 04:42:29;;;;;;;21.88;15.77;;;0.60;99.90;;;;;;4959045;28;89922;-34
2022/12/09 04:44:54;;;;;;;27.45;17.00;;;0.60;99.90;;;;;;4959130;28;88693;-32
2022/12/09 04:47:20;;;;;;;25.05;16.92;;;0.60;99.90;;;;;;4959040;28;90637;-34
2022/12/09 04:49:45;;;;;;;21.25;16.25;;;0.50;99.90;;;;;;4959340;28;89734;-31
2022/12/09 04:52:11;;;;;;;22.52;17.25;;;0.50;99.90;;;;;;4958784;28;89746;-31
2022/12/09 04:54:37;;;;;;;22.38;17.58;;;0.60;99.90;;;;;;4959447;28;88408;-30
2022/12/09 04:57:02;;;;;;;29.95;17.95;;;0.50;99.90;;;;;;4958462;28;90303;-30
2022/12/09 04:59:30;;;;;;;25.08;17.00;;;0.50;99.90;;;;;;4959083;28;88721;-32
2022/12/09 05:01:55;;;;;;;23.67;16.90;;;0.40;99.90;;;;;;4959788;28;89528;-30
2022/12/09 05:04:21;;;;;;;22.83;17.48;;;0.40;99.90;;;;;;4959087;28;88403;-31
2022/12/09 05:06:46;;;;;;;23.92;16.75;;;0.40;99.90;;;;;;4958575;28;90271;-32
2022/12/09 05:09:12;;;;;;;31.17;18.15;;;0.40;99.90;;;;;;4958071;28;89598;-33
2022/12/09 05:11:38;;;;;;;26.33;17.88;;;0.40;99.90;;;;;;4959087;28;89870;-32
2022/12/09 05:14:04;;;;;;;24.20;18.23;;;0.40;99.90;;;;;;4959302;28;89792;-32
2022/12/09 05:16:30;;;;;;;27.23;18.02;;;0.40;99.90;;;;;;4958405;28;90315;-30
2022/12/09 05:18:58;;;;;;;22.70;18.40;;;0.40;99.90;;;;;;4958576;28;89719;-33
2022/12/09 05:21:24;;;;;;;;;;;0.40;99.90;;;;;;4959221;28;90336;-33
2022/12/09 05:23:50;;;;;;;25.13;18.08;;;0.30;99.90;;;;;;4960617;28;89255;-30
2022/12/09 05:26:18;;;;;;;30.27;19.15;;;0.30;99.90;;;;;;4959110;28;90216;-33
2022/12/09 05:28:44;;;;;;;;;;;0.30;99.90;;;;;;4959224;28;90179;-33
2022/12/09 05:31:15;;;;;;;24.63;17.17;;;0.30;99.90;;;;;;4960613;28;89467;-33
2022/12/09 05:33:42;;;;;;;27.40;18.00;;;0.30;99.90;;;;;;4959117;28;90206;-30
2022/12/09 05:36:12;;;;;;;26.77;19.73;;;0.30;99.90;;;;;;4958702;28;90345;-32
2022/12/09 05:38:38;;;;;;;21.98;16.80;;;0.30;99.90;;;;;;4958678;28;90089;-30
2022/12/09 05:41:05;;;;;;;23.45;17.77;;;0.20;99.90;;;;;;4958410;28;90526;-31
2022/12/09 05:43:31;;;;;;;20.08;17.92;;;0.20;99.90;;;;;;4958163;28;90573;-31
2022/12/09 05:45:57;;;;;;;25.88;19.25;;;0.20;99.90;;;;;;4957918;28;90195;-32
2022/12/09 05:48:23;;;;;;;31.60;21.98;;;0.10;99.90;;;;;;4958554;28;89474;-31
2022/12/09 05:51:00;;;;;;;31.33;21.17;;;0.20;99.90;;;;;;4958220;28;89584;-31
2022/12/09 05:53:26;;;;;;;27.55;21.92;;;0.20;99.90;;;;;;4958573;28;88257;-31
2022/12/09 05:55:52;;;;;;;28.63;21.35;;;0.20;99.90;;;;;;4959066;28;90303;-31
2022/12/09 05:58:18;;;;;;;32.30;24.05;;;0.20;99.90;;;;;;4957801;28;89550;-32
2022/12/09 06:00:44;;;;;;;27.02;21.60;;;0.20;99.90;;;;;;4958027;28;89457;-30
2022/12/09 06:03:09;;;;;;;28.38;20.10;;;0.20;99.90;;;;;;4959215;28;88771;-30
2022/12/09 06:05:36;;;;;;;27.58;21.33;;;0.20;99.90;;;;;;4957454;28;90307;-31
2022/12/09 06:08:02;;;;;;;32.50;23.60;;;0.20;99.90;;;;;;4958075;28;91366;-32
2022/12/09 06:10:28;;;;;;;29.70;22.08;;;0.20;99.90;;;;;;4957795;28;90409;-31
2022/12/09 06:12:54;;;;;;;38.13;26.13;;;0.20;99.90;;;;;;4958148;28;89862;-33
2022/12/09 06:15:20;;;;;;;29.25;22.55;;;0.30;99.90;;;;;;4958573;28;90104;-32
2022/12/09 06:17:46;;;;;;;33.83;23.98;;;0.30;99.90;;;;;;4958340;28;89431;-31
2022/12/09 06:20:11;;;;;;;28.88;22.23;;;0.30;99.90;;;;;;4960295;28;89621;-30
2022/12/09 06:22:37;;;;;;;36.28;23.77;;;0.30;99.90;;;;;;4960261;28;89808;-32
2022/12/09 06:25:03;;;;;;;33.90;24.35;;;0.30;99.90;;;;;;4961885;28;90228;-33
2022/12/09 06:27:29;;;;;;;26.83;20.23;;;0.30;99.90;;;;;;4960712;28;89768;-32
2022/12/09 06:29:55;;;;;;;34.83;25.25;;;0.30;99.90;;;;;;4961717;28;89789;-32
2022/12/09 06:32:20;;;;;;;32.28;25.15;;;0.20;99.90;;;;;;4961328;28;88990;-30
2022/12/09 06:34:46;;;;;;;32.72;23.40;;;0.20;99.90;;;;;;4960484;28;89700;-31
2022/12/09 06:37:14;;;;;;;36.30;27.02;;;0.30;99.90;;;;;;4961091;28;89486;-30
2022/12/09 06:39:40;;;;;;;39.85;25.63;;;0.30;99.90;;;;;;4961333;28;88518;-31
2022/12/09 06:42:05;;;;;;;31.42;24.70;;;0.30;99.90;;;;;;4961207;28;88656;-32
2022/12/09 06:44:31;;;;;;;40.42;27.05;;;0.30;99.90;;;;;;4961004;28;90545;-33
2022/12/09 06:46:57;;;;;;;30.08;23.35;;;0.30;99.90;;;;;;4960733;28;89659;-31
2022/12/09 06:49:23;;;;;;;31.25;24.60;;;0.20;99.90;;;;;;4960489;28;89509;-31
2022/12/09 06:51:48;;;;;;;32.78;24.13;;;0.20;99.90;;;;;;4960757;28;89277;-32
2022/12/09 06:54:14;;;;;;;31.85;25.42;;;0.20;99.90;;;;;;4960792;28;90470;-30
2022/12/09 06:56:40;;;;;;;43.35;26.15;;;0.20;99.90;;;;;;4960038;28;90619;-32
2022/12/09 06:59:07;;;;;;;46.38;30.10;;;0.20;99.90;;;;;;4960742;28;91132;-31
2022/12/09 07:01:33;;;;;;;37.05;26.33;;;0.10;99.90;;;;;;4960216;28;89419;-33
2022/12/09 07:03:58;;;;;;;40.45;28.17;;;0.10;99.90;;;;;;4960853;28;90322;-30
2022/12/09 07:06:31;;;;;;;33.92;24.90;;;0.10;99.90;;;;;;4959309;28;91197;-32
2022/12/09 07:08:59;;;;;;;31.70;22.55;;;0.00;99.90;;;;;;4960051;28;91929;-31
2022/12/09 07:11:25;;;;;;;27.98;21.67;;;-0.10;99.90;;;;;;4975195;28;88785;-30
2022/12/09 07:13:51;;;;;;;33.60;24.80;;;-0.10;99.90;;;;;;4976394;28;89789;-30
2022/12/09 07:16:17;;;;;;;33.10;24.02;;;-0.30;99.90;;;;;;4973820;28;90089;-30
2022/12/09 07:18:43;;;;;;;29.15;22.83;;;-0.30;99.90;;;;;;4976840;28;90506;-31
2022/12/09 07:21:10;;;;;;;33.88;24.73;;;-0.30;99.90;;;;;;4972670;28;89165;-32
2022/12/09 07:23:37;;;;;;;30.33;22.88;;;-0.40;99.90;;;;;;4963029;28;89988;-32
2022/12/09 07:26:05;;;;;;;37.10;24.27;;;-0.40;99.90;;;;;;4953297;28;88805;-30
2022/12/09 07:28:31;;;;;;;38.10;24.50;;;-0.40;99.90;;;;;;4959825;28;89858;-31
2022/12/09 07:30:57;;;;;;;34.20;23.95;;;-0.50;99.90;;;;;;4962694;28;89333;-31
2022/12/09 07:33:23;;;;;;;30.02;21.88;;;-0.50;99.90;;;;;;4965748;28;90602;-30
2022/12/09 07:35:48;;;;;;;31.70;24.00;;;-0.50;99.90;;;;;;4962225;28;89912;-33
2022/12/09 07:38:14;;;;;;;36.00;24.40;;;-0.50;99.90;;;;;;4965418;28;89565;-33
2022/12/09 07:40:39;;;;;;;31.98;24.65;;;-0.50;99.90;;;;;;4961996;28;89508;-33
2022/12/09 07:43:06;;;;;;;33.33;23.38;;;-0.50;99.90;;;;;;4958750;28;90288;-32
2022/12/09 07:45:35;;;;;;;39.88;25.88;;;-0.50;99.90;;;;;;4960446;28;90714;-33
2022/12/09 07:48:01;;;;;;;27.88;21.60;;;-0.40;99.90;;;;;;4975659;28;89915;-31
2022/12/09 07:50:27;;;;;;;34.58;23.73;;;-0.40;99.90;;;;;;4971697;28;89165;-32
2022/12/09 07:52:52;;;;;;;32.17;24.02;;;-0.30;99.90;;;;;;4974622;28;90480;-30
2022/12/09 07:55:18;;;;;;;35.15;25.42;;;-0.40;99.90;;;;;;4958665;28;89461;-31
2022/12/09 07:57:44;;;;;;;38.15;24.17;;;-0.30;99.90;;;;;;4958688;28;89568;-33
2022/12/09 08:00:10;;;;;;;34.00;23.42;;;-0.30;99.90;;;;;;4957290;28;90578;-33
2022/12/09 08:02:35;;;;;;;38.70;25.25;;;-0.30;99.90;;;;;;4957584;28;90854;-30
2022/12/09 08:05:01;;;;;;;34.03;25.40;;;-0.30;99.90;;;;;;4956585;28;89908;-33
2022/12/09 08:07:27;;;;;;;45.97;31.42;;;-0.20;99.90;;;;;;4960596;28;89544;-30
2022/12/09 08:09:55;;;;;;;45.00;30.38;;;-0.20;99.90;;;;;;4963083;28;90550;-31
2022/12/09 08:12:22;;;;;;;;;;;-0.10;99.90;;;;;;4967041;28;89789;-32
2022/12/09 08:14:47;;;;;;;41.10;26.35;;;0.00;99.90;;;;;;4964352;28;89717;-32
2022/12/09 08:17:13;;;;;;;38.13;25.55;;;-0.10;99.90;;;;;;4965735;28;89721;-31
2022/12/09 08:19:39;;;;;;;38.22;27.08;;;-0.10;99.90;;;;;;4957187;28;89910;-31
2022/12/09 08:22:04;;;;;;;41.65;28.88;;;-0.10;99.90;;;;;;4956422;28;90295;-32
2022/12/09 08:24:30;;;;;;;40.17;28.13;;;-0.10;99.90;;;;;;4957496;28;89753;-31
2022/12/09 08:26:56;;;;;;;38.80;28.83;;;-0.10;99.90;;;;;;4960409;28;89307;-30
2022/12/09 08:29:22;;;;;;;41.60;31.05;;;-0.10;99.90;;;;;;4977933;28;90172;-33
2022/12/09 08:31:47;;;;;;;42.97;31.17;;;-0.10;99.90;;;;;;4973089;28;90005;-31
2022/12/09 08:34:14;;;;;;;48.33;34.75;;;-0.10;99.90;;;;;;4973714;28;89892;-33
2022/12/09 08:36:40;;;;;;;52.33;37.65;;;0.00;99.90;;;;;;4973421;28;90175;-32
2022/12/09 08:39:06;;;;;;;50.65;37.10;;;0.10;99.90;;;;;;4974892;28;88732;-31
2022/12/09 08:41:34;;;;;;;44.88;33.72;;;0.20;99.90;;;;;;4974008;28;89973;-30
2022/12/09 08:44:14;;;;;;;53.85;34.95;;;0.20;99.90;;;;;;4966846;28;89670;-32
2022/12/09 08:46:42;;;;;;;48.63;35.08;;;0.30;99.90;;;;;;4957787;28;89925;-30
2022/12/09 08:49:08;;;;;;;41.38;32.38;;;0.30;99.90;;;;;;4959034;28;88528;-30
2022/12/09 08:51:35;;;;;;;46.72;34.67;;;0.30;99.90;;;;;;4962649;28;90099;-33
2022/12/09 08:54:01;;;;;;;42.22;33.53;;;0.30;99.90;;;;;;4961669;28;90143;-33
2022/12/09 08:56:27;;;;;;;77.32;39.58;;;0.30;99.90;;;;;;4964355;28;92832;-30
2022/12/09 08:58:54;;;;;;;110.53;47.67;;;0.40;99.90;;;;;;4963572;28;88732;-31
2022/12/09 09:01:22;;;;;;;102.03;45.35;;;0.40;99.90;;;;;;4961218;28;90327;-31
2022/12/09 09:03:48;;;;;;;;;;;0.50;99.90;;;;;;4967952;28;89344;-32
2022/12/09 09:06:15;;;;;;;69.22;40.63;;;0.50;99.90;;;;;;4964326;28;89976;-30
2022/12/09 09:08:41;;;;;;;96.10;42.25;;;0.50;99.90;;;;;;4962453;28;90122;-31
2022/12/09 09:11:12;;;;;;;159.60;51.63;;;0.50;99.90;;;;;;4949429;28;90486;-30
2022/12/09 09:13:39;;;;;;;95.18;44.80;;;0.60;99.90;;;;;;4961187;28;89194;-32
2022/12/09 09:16:09;;;;;;;106.57;47.72;;;0.60;99.90;;;;;;4960846;28;91606;-32
2022/12/09 09:18:35;;;;;;;120.35;52.72;;;0.70;99.90;;;;;;4959878;28;88325;-33
2022/12/09 09:21:00;;;;;;;201.13;60.38;;;0.70;99.90;;;;;;4961656;28;90022;-30
2022/12/09 09:23:26;;;;;;;334.30;70.68;;;0.70;99.90;;;;;;4992539;22;90339;-30
2022/12/09 09:26:19;;;;;;;224.88;64.68;;;0.80;99.90;;;;;;4958059;28;90724;-32
2022/12/09 09:28:45;;;;;;;174.80;56.22;;;0.80;99.90;;;;;;4957420;28;89620;-32
2022/12/09 09:31:13;;;;;;;184.05;57.70;;;0.90;99.90;;;;;;4959178;28;90191;-31
2022/12/09 09:33:39;;;;;;;208.05;58.92;;;0.90;99.90;;;;;;4959194;28;89275;-32
2022/12/09 09:36:07;;;;;;;195.80;55.60;;;0.90;99.90;;;;;;4975794;28;89586;-32
2022/12/09 09:38:33;;;;;;;190.33;55.77;;;1.00;99.90;;;;;;4963747;28;88370;-31
2022/12/09 09:41:00;;;;;;;203.50;58.28;;;1.00;99.90;;;;;;4970020;28;89631;-31
2022/12/09 09:43:35;;;;;;;127.03;48.10;;;1.00;99.90;;;;;;4962069;28;89813;-34
2022/12/09 09:46:03;;;;;;;202.52;56.85;;;0.90;99.90;;;;;;4965746;28;89885;-32
2022/12/09 09:48:33;;;;;;;187.98;54.35;;;0.90;99.90;;;;;;4962866;28;88800;-33
2022/12/09 09:51:11;;;;;;;125.28;43.75;;;0.90;99.90;;;;;;4958498;28;90453;-31
2022/12/09 09:53:37;;;;;;;104.93;41.97;;;0.90;99.90;;;;;;4957054;28;89813;-33
2022/12/09 09:56:15;;;;;;;130.20;45.17;;;0.90;99.90;;;;;;4960868;28;89318;-32
2022/12/09 09:58:47;;;;;;;100.60;44.47;;;0.90;99.90;;;;;;4960344;28;87627;-31
2022/12/09 10:01:18;;;;;;;176.38;53.33;;;0.90;99.90;;;;;;4963483;28;90958;-32
2022/12/09 10:04:17;;;;;;;90.80;51.65;;;0.90;99.90;;;;;;4969274;28;89859;-33
2022/12/09 10:07:03;;;;;;;99.10;48.55;;;0.90;99.90;;;;;;4942560;28;90368;-32
2022/12/09 10:09:40;;;;;;;126.20;50.63;;;0.90;99.90;;;;;;4972495;28;88113;-30
2022/12/09 10:12:28;;;;;;;98.60;41.17;;;0.90;99.90;;;;;;4976384;28;90370;-33
2022/12/09 10:14:56;;;;;;;143.83;49.93;;;0.90;99.90;;;;;;4975371;28;90478;-33
2022/12/09 10:17:27;;;;;;;;;;;0.90;99.90;;;;;;4977418;28;89836;-31
2022/12/09 10:20:10;;;;;;;128.45;45.70;;;0.90;99.90;;;;;;4979924;28;88661;-32
2022/12/09 10:22:40;;;;;;;92.57;40.38;;;0.90;99.90;;;;;;4978751;28;90142;-32
2022/12/09 10:25:25;;;;;;;86.38;41.60;;;0.90;99.90;;;;;;4960827;28;89770;-30
2022/12/09 10:28:10;;;;;;;135.18;44.88;;;0.90;99.90;;;;;;4975509;28;89651;-34
2022/12/09 10:30:37;;;;;;;78.57;38.22;;;1.00;99.90;;;;;;4973456;28;88941;-32
2022/12/09 10:33:03;;;;;;;116.35;43.25;;;0.90;99.90;;;;;;4967666;28;89726;-34
2022/12/09 10:35:29;;;;;;;83.43;44.80;;;1.00;99.90;;;;;;4961199;28;89150;-31
2022/12/09 10:38:08;;;;;;;81.55;42.97;;;1.00;99.90;;;;;;4971184;28;90236;-30
2022/12/09 10:40:51;;;;;;;76.70;41.60;;;1.00;99.90;;;;;;4971059;28;88985;-32
2022/12/09 10:43:37;;;;;;;75.90;41.45;;;1.00;99.90;;;;;;4964650;28;89890;-33
2022/12/09 10:46:17;;;;;;;96.35;42.75;;;1.00;99.90;;;;;;4968943;28;89191;-33
2022/12/09 10:48:43;;;;;;;89.35;43.50;;;1.00;99.90;;;;;;4966453;28;89195;-31
2022/12/09 10:51:16;;;;;;;98.15;40.88;;;1.10;99.90;;;;;;4968127;28;88839;-29
2022/12/09 10:54:12;;;;;;;72.35;41.45;;;1.10;99.90;;;;;;4968018;28;89082;-33
2022/12/09 10:57:00;;;;;;;105.22;45.42;;;1.10;99.90;;;;;;4959395;28;89827;-33
2022/12/09 10:59:28;;;;;;;83.67;37.43;;;1.10;99.90;;;;;;4965672;28;89611;-32
2022/12/09 11:02:09;;;;;;;71.00;44.88;;;1.10;99.90;;;;;;4971514;28;88272;-31
2022/12/09 11:04:40;;;;;;;97.00;47.92;;;1.10;99.90;;;;;;4965503;28;91051;-31
2022/12/09 11:07:06;;;;;;;64.60;43.78;;;1.10;99.90;;;;;;4967564;28;90951;-32
2022/12/09 11:09:38;;;;;;;70.45;42.80;;;1.10;99.90;;;;;;4964871;28;90629;-31
2022/12/09 11:12:05;;;;;;;104.30;48.95;;;1.10;99.90;;;;;;4971609;28;89634;-31
2022/12/09 11:14:37;;;;;;;78.05;45.88;;;1.10;99.90;;;;;;4964494;28;91011;-31
2022/12/09 11:17:36;;;;;;;102.78;48.83;;;1.10;99.90;;;;;;4960436;28;90141;-30
2022/12/09 11:20:05;;;;;;;76.32;46.40;;;1.20;99.90;;;;;;4943054;28;89229;-33
2022/12/09 11:22:39;;;;;;;93.97;49.80;;;1.20;99.90;;;;;;4957814;28;88860;-33
2022/12/09 11:25:10;;;;;;;97.30;50.72;;;1.30;99.90;;;;;;4958357;28;89807;-33
2022/12/09 11:27:39;;;;;;;89.90;51.85;;;1.30;99.90;;;;;;4957669;28;89774;-29
2022/12/09 11:30:14;;;;;;;75.18;47.28;;;1.40;99.90;;;;;;4958044;28;89029;-32
2022/12/09 11:32:57;;;;;;;66.50;45.33;;;1.40;99.90;;;;;;4957776;28;89756;-31
2022/12/09 11:35:49;;;;;;;76.22;49.13;;;1.40;99.90;;;;;;4958201;28;91344;-31
2022/12/09 11:38:30;;;;;;;81.28;50.60;;;1.40;99.90;;;;;;4954445;28;89266;-33
2022/12/09 11:42:12;;;;;;;77.90;50.63;;;1.50;99.90;;;;;;4957732;28;88523;-29
2022/12/09 11:44:23;;;;;;;84.47;50.00;;;1.50;99.90;;;;;;4957888;28;89836;-29
2022/12/09 11:47:01;;;;;;;73.43;50.03;;;1.50;99.90;;;;;;4958659;28;90146;-32
2022/12/09 11:49:30;;;;;;;76.47;52.70;;;1.50;99.90;;;;;;4959986;28;89892;-31
2022/12/09 11:52:16;;;;;;;78.38;50.78;;;1.60;99.90;;;;;;4961053;28;89539;-31
2022/12/09 11:54:53;;;;;;;72.43;48.88;;;1.60;99.90;;;;;;4963455;28;88380;-31
2022/12/09 11:57:40;;;;;;;73.72;49.03;;;1.60;99.90;;;;;;4960687;28;89966;-31
2022/12/09 12:00:15;;;;;;;72.10;50.87;;;1.70;99.90;;;;;;4972326;28;90356;-30
2022/12/09 12:03:13;;;;;;;73.35;48.25;;;1.70;99.90;;;;;;4970559;28;90613;-32
2022/12/09 12:05:42;;;;;;;71.23;48.97;;;1.70;99.90;;;;;;4965668;28;89081;-30
2022/12/09 12:08:36;;;;;;;77.07;49.92;;;1.70;99.90;;;;;;4973217;28;90103;-31
2022/12/09 12:11:16;;;;;;;72.60;50.50;;;1.80;99.90;;;;;;4973703;28;89694;-34
2022/12/09 12:13:47;;;;;;;73.30;48.97;;;1.80;99.90;;;;;;4962755;28;88637;-31
2022/12/09 12:16:31;;;;;;;71.65;49.15;;;1.80;99.90;;;;;;4961294;28;88762;-32
2022/12/09 12:19:30;;;;;;;66.07;48.17;;;1.80;99.90;;;;;;4970886;28;90216;-33
2022/12/09 12:22:17;;;;;;;72.15;49.47;;;1.80;99.90;;;;;;4957991;28;89692;-32
2022/12/09 12:25:08;;;;;;;62.73;44.47;;;1.90;99.90;;;;;;4957099;28;89214;-31
2022/12/09 12:27:59;;;;;;;69.03;46.50;;;1.90;99.90;;;;;;4961947;28;88097;-31
2022/12/09 12:30:38;;;;;;;65.10;45.17;;;1.90;99.90;;;;;;4955469;28;90284;-32
2022/12/09 12:33:55;;;;;;;63.50;45.47;;;1.90;99.90;;;;;;4958250;28;89554;-30
2022/12/09 12:36:32;;;;;;;62.63;43.58;;;1.90;99.90;;;;;;4887515;28;89585;-30
2022/12/09 12:39:03;;;;;;;67.45;46.95;;;2.00;99.90;;;;;;4962586;28;88839;-32
2022/12/09 12:41:59;;;;;;;69.65;46.75;;;2.00;99.90;;;;;;4965048;28;90140;-31
2022/12/09 12:47:54;;;;;;;67.53;44.43;;;2.10;99.90;;;;;;4957639;28;91237;-33
2022/12/09 12:50:39;;;;;;;64.03;47.13;;;2.10;99.90;;;;;;4950038;28;88713;-31
2022/12/09 12:53:19;;;;;;;63.50;45.97;;;2.10;99.90;;;;;;4964804;28;89756;-32
2022/12/09 12:56:02;;;;;;;65.80;50.03;;;2.20;99.90;;;;;;4961490;28;90927;-33
2022/12/09 12:59:08;;;;;;;70.28;48.05;;;2.20;99.90;;;;;;4969776;28;89976;-30
2022/12/09 13:01:51;;;;;;;65.50;45.83;;;2.20;99.90;;;;;;4971138;28;88537;-30